This is the latest recevied weather packets stored in our database for station/object DL2GPS-3. If no packets are shown the sender has not sent any weather packets the latest 10 day(s).
| Time | Temp. | Humidity | Pressure | Rain* | Wind** | Luminosity | Snow |
|---|---|---|---|---|---|---|---|
| 1777901210 | 16.67° C | 59% | 1015.5 hPa | - | - | - | - |
| 1777900605 | 17.22° C | 53% | 1015.6 hPa | - | - | - | - |
| 1777900000 | 17.78° C | 48% | 1015.5 hPa | - | - | - | - |
| 1777899395 | 18.33° C | 46% | 1015.5 hPa | - | - | - | - |
| 1777898789 | 18.89° C | 45% | 1015.5 hPa | - | - | - | - |
| 1777898184 | 17.78° C | 47% | 1015.4 hPa | - | - | - | - |
| 1777897579 | 17.78° C | 47% | 1015.4 hPa | - | - | - | - |
| 1777896974 | 17.22° C | 47% | 1015.4 hPa | - | - | - | - |
| 1777896368 | 18.33° C | 40% | 1015.5 hPa | - | - | - | - |
| 1777895764 | 18.89° C | 41% | 1015.5 hPa | - | - | - | - |
| 1777895159 | 17.78° C | 41% | 1015.4 hPa | - | - | - | - |
| 1777894554 | 17.78° C | 40% | 1015.6 hPa | - | - | - | - |
| 1777893948 | 18.89° C | 39% | 1015.6 hPa | - | - | - | - |
| 1777893343 | 18.33° C | 39% | 1015.8 hPa | - | - | - | - |
| 1777892738 | 19.44° C | 38% | 1015.7 hPa | - | - | - | - |
| 1777892133 | 21.67° C | 34% | 1015.8 hPa | - | - | - | - |
| 1777891527 | 20° C | 37% | 1015.9 hPa | - | - | - | - |
| 1777890923 | 21.67° C | 37% | 1016 hPa | - | - | - | - |
| 1777890318 | 19.44° C | 39% | 1016.1 hPa | - | - | - | - |
| 1777889713 | 18.89° C | 40% | 1016.2 hPa | - | - | - | - |
| 1777889107 | 18.89° C | 40% | 1016.2 hPa | - | - | - | - |
| 1777888503 | 17.78° C | 42% | 1016.3 hPa | - | - | - | - |
| 1777887898 | 17.22° C | 42% | 1016.5 hPa | - | - | - | - |
| 1777887293 | 17.22° C | 42% | 1016.4 hPa | - | - | - | - |
| 1777886687 | 18.89° C | 40% | 1016.5 hPa | - | - | - | - |
* Rain since midnight (hover to see other rain measurements)
** Current wind speed in m/s (hover to see current wind gust speed)